Kovrov, Russia
Current Conditions -  °F | °C
As of 6:00 PM on Friday 19 Dec 2014 (Local Time) from UUDL Reporting Station
Overcast Overcast  
Wind Chill: 26°   Ceiling: 1500
Heat Index: 32°   Visibility: 6mi
Dew Point: 28°   Wind: 7mph
Humidity: 87%   Direction: 150°SSE
Pressure: 29.56"   Gusts: NA
Location:  56.36°N, 41.32°E
Report Text: UUDL 191500Z 15003MPS 9999 OVC015 M00/M02 Q1001 NOSIG RMKQFE742 23290554
Loading
Personal Weather Stations






























Interactive Weather Map New forecast layout! Learn more

10-Day Weather Forecast

Advertisements
Track Severe Weather on mobile